createdAt,value
2022-10-17T00:02:43.755Z,94543.97
2022-10-17T00:07:47.359Z,94544.31
2022-10-17T00:12:51.930Z,94559.09
2022-10-17T00:17:54.986Z,94553.81
2022-10-17T00:22:58.145Z,94547.63
2022-10-17T00:28:01.560Z,94553.78
2022-10-17T00:33:05.577Z,94552.53
2022-10-17T00:38:08.994Z,94549.75
2022-10-17T00:43:18.846Z,94544.78
2022-10-17T00:48:25.351Z,94551.28
2022-10-17T00:53:29.267Z,94541.28
2022-10-17T00:58:33.246Z,94537.66
2022-10-17T01:03:36.492Z,94539.72
2022-10-17T01:08:40.311Z,94541.09
2022-10-17T01:13:50.676Z,94524.13
2022-10-17T01:19:13.107Z,94537.75
2022-10-17T01:24:41.275Z,94533.78
2022-10-17T01:29:48.409Z,94538.69
2022-10-17T01:35:09.491Z,94542.22
2022-10-17T01:40:21.536Z,94532.16
2022-10-17T01:45:41.597Z,94522.63
2022-10-17T01:50:57.192Z,94534.38
2022-10-17T01:56:03.501Z,94529.00
2022-10-17T02:01:08.993Z,94533.59
2022-10-17T02:06:12.226Z,94537.44
2022-10-17T02:11:22.135Z,94531.88
2022-10-17T02:16:53.619Z,94537.19
2022-10-17T02:22:07.206Z,94535.66
2022-10-17T02:27:17.398Z,94530.78
2022-10-17T02:32:41.149Z,94532.41
2022-10-17T02:37:46.296Z,94531.84
2022-10-17T02:42:52.227Z,94535.47
2022-10-17T02:48:05.373Z,94538.09
2022-10-17T02:53:16.642Z,94541.84
2022-10-17T02:58:29.274Z,94545.63
2022-10-17T03:03:33.672Z,94554.03
2022-10-17T03:13:46.297Z,94553.59
2022-10-17T03:18:50.361Z,94549.50
2022-10-17T03:23:54.520Z,94560.28
2022-10-17T03:28:58.950Z,94565.84
2022-10-17T03:34:04.710Z,94555.75
2022-10-17T03:39:09.064Z,94566.50
2022-10-17T03:44:12.253Z,94567.44
2022-10-17T03:49:15.896Z,94567.53
2022-10-17T03:54:19.902Z,94574.47
2022-10-17T03:59:23.633Z,94577.19
2022-10-17T04:04:36.975Z,94567.66
2022-10-17T04:09:40.817Z,94572.19
2022-10-17T04:14:50.280Z,94573.22
2022-10-17T04:19:53.771Z,94579.00
2022-10-17T04:24:59.367Z,94578.91
2022-10-17T04:30:18.800Z,94577.06
2022-10-17T04:35:22.628Z,94583.88
2022-10-17T04:40:33.492Z,94586.69
2022-10-17T04:45:38.900Z,94577.41
2022-10-17T04:50:53.041Z,94580.91
2022-10-17T04:56:20.013Z,94593.28
2022-10-17T05:01:25.405Z,94592.03
2022-10-17T05:06:31.758Z,94610.38
2022-10-17T05:11:54.904Z,94607.47
2022-10-17T05:16:59.746Z,94606.44
2022-10-17T05:22:05.795Z,94609.16
2022-10-17T05:27:09.596Z,94613.94
2022-10-17T05:32:13.009Z,94618.13
2022-10-17T05:37:17.025Z,94620.06
2022-10-17T05:42:27.836Z,94621.81
2022-10-17T05:47:33.005Z,94632.44
2022-10-17T05:52:37.465Z,94637.47
2022-10-17T05:57:48.404Z,94645.53
2022-10-17T06:02:55.018Z,94648.06
2022-10-17T06:08:01.934Z,94653.56
2022-10-17T06:13:09.280Z,94653.66
2022-10-17T06:18:13.265Z,94645.66
2022-10-17T06:23:17.959Z,94639.81
2022-10-17T06:28:44.089Z,94638.06
2022-10-17T06:33:48.158Z,94649.47
2022-10-17T06:38:52.603Z,94652.22
2022-10-17T06:44:11.399Z,94660.72
2022-10-17T06:49:14.897Z,94666.91
2022-10-17T06:54:36.339Z,94663.06
2022-10-17T07:00:04.656Z,94668.34
2022-10-17T07:05:14.635Z,94676.31
2022-10-17T07:10:18.785Z,94681.09
2022-10-17T07:15:21.840Z,94682.22
2022-10-17T07:20:25.662Z,94679.75
2022-10-17T07:25:30.079Z,94680.84
2022-10-17T07:30:36.969Z,94691.16
2022-10-17T07:35:45.052Z,94696.25
2022-10-17T07:40:55.472Z,94696.34
2022-10-17T07:45:59.026Z,94703.88
2022-10-17T07:51:04.613Z,94709.16
2022-10-17T07:56:09.925Z,94709.50
2022-10-17T08:01:15.857Z,94708.19
2022-10-17T08:06:20.127Z,94716.91
2022-10-17T08:11:25.562Z,94723.41
2022-10-17T08:16:28.823Z,94722.47
2022-10-17T08:21:32.464Z,94731.91
2022-10-17T08:26:39.278Z,94730.44
2022-10-17T08:31:47.844Z,94734.56
2022-10-17T08:36:52.588Z,94737.78
2022-10-17T08:42:42.040Z,94729.88
2022-10-17T08:47:49.147Z,94726.72
2022-10-17T08:52:56.765Z,94722.81
2022-10-17T08:58:00.714Z,94727.72
2022-10-17T09:03:27.017Z,94736.81
2022-10-17T09:08:51.347Z,94734.69
2022-10-17T09:14:04.007Z,94723.97
2022-10-17T09:19:21.413Z,94727.31
2022-10-17T09:24:55.950Z,94727.88
2022-10-17T09:30:21.504Z,94731.25
2022-10-17T09:35:42.203Z,94732.28
2022-10-17T09:40:53.715Z,94729.41
2022-10-17T09:46:22.785Z,94733.72
2022-10-17T09:51:27.317Z,94743.41
2022-10-17T09:56:30.690Z,94731.41
2022-10-17T10:01:35.155Z,94737.69
2022-10-17T10:06:39.374Z,94737.09
2022-10-17T10:11:55.883Z,94736.56
2022-10-17T10:17:01.659Z,94730.34
2022-10-17T10:22:07.241Z,94730.03
2022-10-17T10:27:16.216Z,94733.84
2022-10-17T10:32:24.278Z,94729.25
2022-10-17T10:37:34.167Z,94735.03
2022-10-17T10:42:39.983Z,94729.94
2022-10-17T10:47:53.046Z,94734.53
2022-10-17T10:53:26.274Z,94724.41
2022-10-17T10:58:47.790Z,94728.25
2022-10-17T11:04:02.140Z,94721.03
2022-10-17T11:09:14.973Z,94725.94
2022-10-17T11:14:25.044Z,94720.44
2022-10-17T11:20:03.731Z,94712.38
2022-10-17T11:25:41.039Z,94709.41
2022-10-17T11:30:52.434Z,94721.63
2022-10-17T11:36:01.984Z,94723.78
2022-10-17T11:41:09.402Z,94701.75
2022-10-17T11:46:25.220Z,94704.78
2022-10-17T11:56:56.838Z,94697.91
2022-10-17T12:02:09.279Z,94689.78
2022-10-17T12:07:23.102Z,94692.16
2022-10-17T12:12:34.684Z,94683.81
2022-10-17T12:17:41.175Z,94681.56
2022-10-17T12:22:48.932Z,94675.13
2022-10-17T12:28:13.608Z,94672.00
2022-10-17T12:33:22.810Z,94681.34
2022-10-17T12:38:28.392Z,94674.28
2022-10-17T12:43:32.021Z,94676.59
2022-10-17T12:48:35.692Z,94675.00
2022-10-17T12:54:02.599Z,94670.06
2022-10-17T12:59:15.090Z,94676.44
2022-10-17T13:04:20.031Z,94673.78
2022-10-17T13:09:28.805Z,94668.16
2022-10-17T13:14:34.763Z,94672.56
2022-10-17T13:19:45.938Z,94668.13
2022-10-17T13:24:51.438Z,94669.13
2022-10-17T13:29:57.135Z,94667.88
2022-10-17T13:35:11.218Z,94666.16
2022-10-17T13:40:44.171Z,94663.44
2022-10-17T13:45:50.785Z,94665.88
2022-10-17T13:51:00.464Z,94661.72
2022-10-17T13:56:27.750Z,94664.81
2022-10-17T14:01:33.198Z,94665.06
2022-10-17T14:06:46.385Z,94658.22
2022-10-17T14:12:01.281Z,94651.97
2022-10-17T14:17:15.289Z,94653.22
2022-10-17T14:22:21.521Z,94664.13
2022-10-17T14:27:38.323Z,94665.41
2022-10-17T14:32:43.963Z,94672.59
2022-10-17T14:37:50.250Z,94665.16
2022-10-17T14:42:57.171Z,94673.94
2022-10-17T14:48:21.809Z,94670.22
2022-10-17T14:53:28.477Z,94667.19
2022-10-17T14:58:33.586Z,94666.41
2022-10-17T15:03:37.068Z,94667.78
2022-10-17T15:08:40.550Z,94670.75
2022-10-17T15:13:45.740Z,94668.34
2022-10-17T15:18:48.874Z,94672.50
2022-10-17T15:23:52.096Z,94665.09
2022-10-17T15:28:55.856Z,94681.00
2022-10-17T15:33:58.897Z,94680.19
2022-10-17T15:39:02.717Z,94675.25
2022-10-17T15:44:05.967Z,94677.25
2022-10-17T15:49:17.416Z,94677.56
2022-10-17T15:54:20.483Z,94684.66
2022-10-17T15:59:34.905Z,94687.03
2022-10-17T16:04:37.979Z,94692.66
2022-10-17T16:09:46.436Z,94687.53
2022-10-17T16:14:49.976Z,94699.97
2022-10-17T16:19:53.739Z,94697.25
2022-10-17T16:24:59.814Z,94700.03
2022-10-17T16:30:06.569Z,94711.84
2022-10-17T16:35:10.658Z,94700.38
2022-10-17T16:40:15.181Z,94700.25
2022-10-17T16:45:22.865Z,94719.88
2022-10-17T16:50:26.385Z,94724.53
2022-10-17T16:55:29.459Z,94737.91
2022-10-17T17:00:33.559Z,94740.13
2022-10-17T17:05:37.383Z,94735.28
2022-10-17T17:10:46.079Z,94729.31
2022-10-17T17:15:53.862Z,94745.41
2022-10-17T17:21:01.702Z,94752.38
2022-10-17T17:26:12.637Z,94757.31
2022-10-17T17:31:18.990Z,94758.47
2022-10-17T17:36:31.175Z,94762.72
2022-10-17T17:41:35.535Z,94756.34
2022-10-17T17:46:39.759Z,94761.00
2022-10-17T17:51:46.490Z,94760.06
2022-10-17T17:56:49.720Z,94759.13
2022-10-17T18:01:53.206Z,94762.81
2022-10-17T18:06:56.477Z,94768.06
2022-10-17T18:12:00.093Z,94762.41
2022-10-17T18:17:03.553Z,94765.38
2022-10-17T18:22:07.046Z,94767.53
2022-10-17T18:27:12.925Z,94764.56
2022-10-17T18:32:16.456Z,94770.41
2022-10-17T18:37:20.446Z,94775.91
2022-10-17T18:42:24.291Z,94769.88
2022-10-17T18:47:27.541Z,94770.94
2022-10-17T18:52:31.322Z,94774.34
2022-10-17T18:57:35.034Z,94777.28
2022-10-17T19:02:38.534Z,94781.03
2022-10-17T19:07:42.116Z,94785.66
2022-10-17T19:12:45.108Z,94786.81
2022-10-17T19:17:48.587Z,94782.00
2022-10-17T19:28:02.124Z,94788.06
2022-10-17T19:33:06.058Z,94802.75
2022-10-17T19:38:08.975Z,94787.69
2022-10-17T19:43:12.322Z,94798.66
2022-10-17T19:48:15.365Z,94800.97
2022-10-17T19:53:19.837Z,94804.00
2022-10-17T19:58:24.879Z,94806.63
2022-10-17T20:03:28.592Z,94807.72
2022-10-17T20:08:32.593Z,94811.59
2022-10-17T20:13:37.005Z,94814.13
2022-10-17T20:18:42.160Z,94822.47
2022-10-17T20:23:47.945Z,94821.44
2022-10-17T20:28:51.052Z,94818.59
2022-10-17T20:33:56.049Z,94814.19
2022-10-17T20:39:00.180Z,94818.31
2022-10-17T20:44:03.676Z,94820.75
2022-10-17T20:49:08.411Z,94826.09
2022-10-17T20:54:12.055Z,94829.63
2022-10-17T20:59:17.602Z,94827.72
2022-10-17T21:04:44.918Z,94823.66
2022-10-17T21:09:46.536Z,94824.44
2022-10-17T21:14:50.411Z,94820.69
2022-10-17T21:19:54.243Z,94820.13
2022-10-17T21:24:57.678Z,94818.13
2022-10-17T21:30:01.424Z,94804.25
2022-10-17T21:35:04.883Z,94803.66
2022-10-17T21:40:09.224Z,94805.16
2022-10-17T21:45:15.730Z,94799.16
2022-10-17T21:50:23.648Z,94801.28
2022-10-17T21:55:27.130Z,94805.00
2022-10-17T22:00:31.879Z,94800.13
2022-10-17T22:05:35.976Z,94800.75
2022-10-17T22:10:40.909Z,94798.72
2022-10-17T22:15:43.902Z,94798.88
2022-10-17T22:20:47.947Z,94798.00
2022-10-17T22:25:57.642Z,94790.56
2022-10-17T22:31:03.739Z,94793.31
2022-10-17T22:36:08.714Z,94782.03
2022-10-17T22:41:12.177Z,94782.38
2022-10-17T22:46:17.423Z,94786.38
2022-10-17T22:51:21.450Z,94779.06
2022-10-17T22:56:25.247Z,94772.25
2022-10-17T23:01:28.375Z,94771.09
2022-10-17T23:06:31.891Z,94772.06
2022-10-17T23:11:34.814Z,94772.22
2022-10-17T23:16:38.216Z,94775.84
2022-10-17T23:21:41.626Z,94764.75
2022-10-17T23:26:44.574Z,94768.59
2022-10-17T23:31:48.292Z,94762.00
2022-10-17T23:36:53.167Z,94767.47
2022-10-17T23:41:56.729Z,94767.47
2022-10-17T23:47:00.230Z,94763.97
2022-10-17T23:52:03.652Z,94757.16
2022-10-17T23:57:06.987Z,94754.66
